Latest Weather Observations for Kowanyama

IDQ60801

Issued at 6:35 pm EST Wednesday 4 March 2015 (issued every 30 minutes, with the page automatically refreshed every 10 minutes)

About weather observations | Map of weather stations | Latest weather observations for QLD | Other Formats
Station Details ID: 029038 Name: KOWANYAMA AIRPORT Lat: -15.48 Lon: 141.75 Height: 9.6 m
Data from the previous 72 hours. | See also: Recent months at Kowanyama
Date/Time
EST
Temp
°C
App
Temp
°C
Dew
Point
Rel
Hum
%
Delta-T
°C
Wind Press
QNH
hPa
Press
MSL
hPa
Rain
since 9 am
mm
Dir
 
Spd
km/h
Gust
km/h
Spd
kts
Gust
kts
04/06:30pm 30.6 32.8 21.9 59 5.9 W 13 20 7 11 1006.1 1006.0 0.0
04/06:00pm 31.6 32.5 22.0 56 6.5 W 20 26 11 14 1005.7 1005.6 0.0
04/05:30pm 32.4 33.8 22.5 56 6.8 W 19 24 10 13 1005.7 1005.6 0.0
04/05:00pm 33.2 34.5 22.6 53 7.3 W 20 28 11 15 1005.6 1005.5 0.0
04/04:30pm 34.9 35.5 17.6 35 11.2 SSE 11 17 6 9 1005.8 1005.7 0.0
04/04:00pm 34.7 34.6 17.0 35 11.4 SSE 13 19 7 10 1005.9 1005.8 0.0
04/03:30pm 34.6 34.9 17.8 37 10.9 S 13 19 7 10 1006.2 1006.1 0.0
04/03:00pm 34.7 35.6 18.3 38 10.7 SE 11 20 6 11 1006.4 1006.3 0.0
04/02:30pm 34.1 36.2 20.1 43 9.3 E 9 17 5 9 1006.7 1006.6 0.0
04/02:00pm 33.5 35.2 21.0 48 8.4 SE 13 20 7 11 1007.4 1007.3 0.0
04/01:30pm 33.8 36.6 20.9 46 8.7 ESE 7 19 4 10 1007.7 1007.6 0.0
04/01:00pm 33.7 36.7 20.8 46 8.7 NE 6 17 3 9 1008.3 1008.2 0.0
04/12:30pm 33.4 36.0 21.2 48 8.2 SE 9 15 5 8 1008.8 1008.7 0.0
04/12:00pm 32.1 34.1 20.0 48 8.0 E 9 20 5 11 1009.3 1009.2 0.0
04/11:30am 31.8 33.2 20.4 51 7.6 SE 13 20 7 11 1009.6 1009.5 0.0
04/11:00am 31.3 34.1 20.9 54 7.0 ENE 7 13 4 7 1009.9 1009.8 0.0
04/10:30am 30.6 33.4 20.8 56 6.5 SSE 7 13 4 7 1010.3 1010.2 0.0
04/10:00am 29.9 32.8 21.8 62 5.5 SSE 9 15 5 8 1010.5 1010.4 0.0
04/09:30am 29.4 32.4 21.9 64 5.1 SE 9 15 5 8 1010.7 1010.6 0.0
04/09:00am 28.9 32.6 22.2 67 4.5 E 6 11 3 6 1010.5 1010.4 0.0
04/08:30am 28.0 31.7 22.5 72 3.7 SE 7 9 4 5 1010.4 1010.3 0.0
04/08:00am 26.9 30.7 22.7 78 2.8 SE 7 7 4 4 1009.9 1009.8 0.0
04/07:30am 25.5 30.6 23.4 88 1.4 SSE 2 6 1 3 1009.6 1009.5 0.0
04/07:00am 24.4 29.8 23.2 93 0.8 CALM 0 6 0 3 1009.2 1009.1 0.0
04/06:30am 24.3 29.6 23.1 93 0.8 CALM 0 0 0 0 1008.7 1008.6 0.0
04/06:00am 24.4 29.7 23.0 92 0.9 CALM 0 0 0 0 1008.7 1008.6 0.0
04/05:30am 24.6 29.5 23.0 91 1.1 ESE 2 6 1 3 1008.3 1008.2 0.0
04/05:00am 25.1 30.5 23.2 89 1.3 CALM 0 0 0 0 1008.1 1008.0 0.0
04/04:30am 25.3 30.8 23.4 89 1.3 CALM 0 0 0 0 1008.1 1008.0 0.0
04/04:00am 25.4 30.7 23.1 87 1.6 CALM 0 0 0 0 1008.0 1007.9 0.0
04/03:30am 25.8 30.6 23.5 87 1.6 SE 4 7 2 4 1008.2 1008.1 0.0
04/03:00am 25.6 31.0 23.3 87 1.6 CALM 0 0 0 0 1008.0 1007.9 0.0
04/02:30am 25.6 30.9 23.1 86 1.7 CALM 0 0 0 0 1007.7 1007.6 0.0
04/02:00am 25.8 31.0 22.9 84 2.0 CALM 0 2 0 1 1008.2 1008.1 0.0
04/01:30am 26.5 31.3 22.1 77 3.0 CALM 0 0 0 0 1008.5 1008.4 0.0
04/01:00am 26.7 31.4 21.9 75 3.2 CALM 0 4 0 2 1008.7 1008.6 0.0
04/12:30am 27.0 30.2 21.7 73 3.5 NE 7 13 4 7 1008.9 1008.8 0.0
04/12:00am 27.2 29.4 21.9 73 3.6 NE 13 20 7 11 1009.1 1009.0 0.0
 
Date/Time
EST
Temp
°C
App
Temp
°C
Dew
Point
Rel
Hum
%
Delta-T
°C
Wind Press
QNH
hPa
Press
MSL
hPa
Rain
since 9 am
mm
Dir
 
Spd
km/h
Gust
km/h
Spd
kts
Gust
kts
03/11:30pm 27.4 30.2 22.3 73 3.4 NE 11 17 6 9 1009.2 1009.1 0.0
03/11:00pm 27.8 30.5 22.1 71 3.8 NE 11 15 6 8 1009.0 1008.9 0.0
03/10:30pm 28.7 31.9 23.1 71 3.8 NE 11 30 6 16 1009.0 1008.9 0.0
03/10:00pm 28.1 33.0 24.7 82 2.4 SSW 7 9 4 5 1007.9 1007.8 0.0
03/09:30pm 28.4 33.6 24.8 81 2.5 WSW 6 9 3 5 1007.7 1007.6 0.0
03/09:00pm 28.6 33.1 24.6 79 2.8 SW 9 11 5 6 1007.2 1007.1 0.0
03/08:30pm 28.8 33.7 24.6 78 2.9 SW 7 11 4 6 1007.0 1006.9 0.0
03/08:00pm 29.2 33.6 24.5 76 3.3 WSW 9 13 5 7 1006.9 1006.8 0.0
03/07:30pm 29.8 34.1 24.2 72 3.9 WSW 9 15 5 8 1006.7 1006.6 0.0
03/07:00pm 30.5 34.4 24.2 69 4.4 WSW 11 15 6 8 1006.3 1006.2 0.0
03/06:30pm 31.4 34.7 23.8 64 5.3 WSW 13 19 7 10 1006.1 1006.0 0.0
03/06:00pm 32.5 35.7 23.7 59 6.1 W 13 17 7 9 1005.7 1005.6 0.0
03/05:30pm 34.8 37.0 19.2 39 10.3 NNE 6 7 3 4 1005.5 1005.4 0.0
03/05:00pm 34.6 36.7 19.0 39 10.3 ESE 6 9 3 5 1005.5 1005.4 0.0
03/04:30pm 34.8 37.0 19.2 39 10.3 N 6 7 3 4 1005.5 1005.4 0.0
03/04:00pm 34.9 37.0 19.3 40 10.3 E 7 13 4 7 1005.8 1005.7 0.0
03/03:30pm 35.5 37.2 19.4 38 10.7 E 9 17 5 9 1005.9 1005.8 0.0
03/03:00pm 35.3 36.9 19.2 38 10.7 E 9 13 5 7 1006.1 1006.0 0.0
03/02:30pm 35.1 35.9 19.1 39 10.5 ENE 13 19 7 10 1006.4 1006.3 0.0
03/02:00pm 34.9 35.8 19.3 40 10.3 ENE 13 20 7 11 1006.8 1006.7 0.0
03/01:30pm 34.2 35.5 19.4 41 9.8 ESE 11 17 6 9 1007.2 1007.1 0.0
03/01:00pm 34.3 35.1 19.9 42 9.6 ESE 15 20 8 11 1007.6 1007.5 0.0
03/12:30pm 33.2 34.1 20.0 45 8.8 ENE 15 26 8 14 1008.2 1008.1 0.0
03/12:00pm 33.3 35.6 22.1 52 7.7 ENE 13 20 7 11 1009.0 1008.9 0.0
03/11:30am 33.0 36.0 22.7 54 7.1 E 11 17 6 9 1009.5 1009.4 0.0
03/11:00am 31.4 33.1 21.6 56 6.6 ENE 15 22 8 12 1009.8 1009.7 0.0
03/10:30am 31.3 33.6 22.0 57 6.3 ENE 13 20 7 11 1010.0 1009.9 0.0
03/10:00am 30.4 33.2 23.6 67 4.7 ENE 15 22 8 12 1010.1 1010.0 0.0
03/09:30am 29.4 32.8 24.0 72 3.7 NE 13 20 7 11 1010.1 1010.0 0.0
03/09:00am 28.8 32.5 24.6 78 2.9 NE 13 20 7 11 1009.9 1009.8 0.0
03/08:30am 27.3 32.1 25.1 88 1.5 ENE 9 17 5 9 1009.7 1009.6 0.0
03/08:00am 26.2 31.8 25.7 97 0.4 E 7 13 4 7 1009.5 1009.4 0.0
03/07:30am 25.7 31.3 25.7 100 0.0 E 7 11 4 6 1009.3 1009.2 0.0
03/07:00am 25.5 31.1 25.5 100 0.0 E 6 9 3 5 1008.9 1008.8 0.0
03/06:30am 25.5 31.1 25.5 100 0.0 E 6 7 3 4 1008.5 1008.4 0.0
03/06:00am 25.6 31.7 25.6 100 0.0 E 4 7 2 4 1008.0 1007.9 0.0
03/05:30am 25.7 32.5 25.5 99 0.1 CALM 0 0 0 0 1007.5 1007.4 0.0
03/05:14am 25.8 32.6 25.5 98 0.2 CALM 0 0 0 0 1007.5 1007.4 0.0
03/05:00am 25.7 32.4 25.4 98 0.2 CALM 0 0 0 0 1007.6 1007.5 0.0
03/04:30am 25.7 32.0 25.4 98 0.2 NNE 2 7 1 4 1007.4 1007.3 0.0
03/04:18am 25.7 32.0 25.4 98 0.2 NE 2 6 1 3 1007.3 1007.2 0.0
03/04:00am 25.6 31.4 25.1 97 0.3 NE 4 7 2 4 1007.0 1006.9 0.0
03/03:30am 25.6 31.0 25.1 97 0.3 E 6 9 3 5 1006.6 1006.5 0.0
03/03:00am 25.5 30.1 24.8 96 0.5 NNE 9 13 5 7 1006.4 1006.3 0.0
03/02:30am 25.5 30.5 24.5 94 0.7 NNE 6 9 3 5 1007.0 1006.9 0.0
03/02:10am 25.6 30.5 24.4 93 0.8 N 6 7 3 4 1007.0 1006.9 0.0
03/02:00am 25.7 30.4 24.3 92 1.0 ESE 7 11 4 6 1007.3 1007.2 0.0
03/01:40am 25.7 29.8 24.5 93 0.8 ESE 11 15 6 8 1007.6 1007.5 0.0
03/01:30am 25.4 29.5 24.0 92 1.0 E 9 15 5 8 1007.6 1007.5 0.0
03/01:00am 25.4 30.1 24.0 92 1.0 NE 6 7 3 4 1007.8 1007.7 0.0
03/12:35am 25.6 29.7 24.0 91 1.1 NE 9 15 5 8 1008.1 1008.0 0.0
03/12:30am 25.6 30.0 23.8 90 1.2 NNE 7 11 4 6 1008.3 1008.2 0.0
03/12:00am 26.3 29.0 23.4 84 2.0 ESE 15 24 8 13 1008.6 1008.5 0.0
 
Date/Time
EST
Temp
°C
App
Temp
°C
Dew
Point
Rel
Hum
%
Delta-T
°C
Wind Press
QNH
hPa
Press
MSL
hPa
Rain
since 9 am
mm
Dir
 
Spd
km/h
Gust
km/h
Spd
kts
Gust
kts
02/11:30pm 26.7 28.4 23.4 82 2.3 SE 20 32 11 17 1009.5 1009.4 0.0
02/11:00pm 28.4 30.2 23.3 74 3.5 SE 19 26 10 14 1008.6 1008.5 0.0
02/10:30pm 28.9 33.2 24.9 79 2.8 SSW 11 15 6 8 1007.8 1007.7 0.0
02/10:00pm 28.7 33.4 24.9 80 2.7 S 9 13 5 7 1007.5 1007.4 0.0
02/09:30pm 29.1 34.6 25.3 80 2.7 SSW 6 13 3 7 1007.1 1007.0 0.0
02/09:00pm 28.8 34.9 25.0 80 2.7 W 2 7 1 4 1006.6 1006.5 0.0
02/08:30pm 28.7 33.6 24.7 79 2.8 W 7 9 4 5 1006.1 1006.0 0.0
02/08:00pm 29.1 33.6 24.6 76 3.1 WSW 9 11 5 6 1005.9 1005.8 0.0
02/07:30pm 29.5 33.6 24.6 75 3.4 WSW 11 13 6 7 1005.5 1005.4 0.0
02/07:00pm 30.1 33.8 24.5 72 3.9 W 13 17 7 9 1005.2 1005.1 0.0
02/06:30pm 31.3 34.2 24.4 66 4.8 WNW 17 20 9 11 1004.7 1004.6 0.0
02/06:00pm 32.5 35.0 24.5 62 5.6 WNW 19 22 10 12 1004.5 1004.4 0.0
02/05:30pm 32.8 35.6 24.3 61 6.0 WNW 17 24 9 13 1004.2 1004.1 0.0
02/05:00pm 34.2 37.2 24.7 57 6.7 WNW 17 20 9 11 1004.0 1003.9 0.0
02/04:30pm 34.5 37.1 20.5 44 9.4 ENE 7 17 4 9 1004.0 1003.9 0.0
02/04:00pm 35.4 38.8 21.6 44 9.4 E 6 13 3 7 1004.1 1004.0 0.0
02/03:30pm 34.7 37.8 21.4 46 9.0 E 7 17 4 9 1004.5 1004.4 0.0
02/03:00pm 35.4 38.1 21.3 44 9.6 NE 9 17 5 9 1004.7 1004.6 0.0
02/02:30pm 34.2 36.5 21.3 47 8.7 E 11 20 6 11 1005.1 1005.0 0.0
02/02:00pm 34.8 37.7 21.8 46 8.9 NE 9 15 5 8 1005.5 1005.4 0.0
02/01:30pm 33.8 36.6 21.6 49 8.3 ENE 9 17 5 9 1005.9 1005.8 0.0
02/01:00pm 33.8 37.3 22.9 53 7.5 NE 9 15 5 8 1006.4 1006.3 0.0
02/12:30pm 33.7 36.0 22.1 50 7.9 NE 13 26 7 14 1007.0 1006.9 0.0
02/12:00pm 32.9 36.1 23.0 56 6.8 NE 11 20 6 11 1007.6 1007.5 0.0
02/11:30am 32.1 35.2 22.2 56 6.7 NNE 9 17 5 9 1008.1 1008.0 0.0
02/11:00am 31.5 33.9 22.2 57 6.3 NNE 13 17 7 9 1008.3 1008.2 0.0
02/10:30am 31.9 35.3 23.4 60 5.9 NNE 11 17 6 9 1008.6 1008.5 0.0
02/10:00am 31.1 34.4 23.2 63 5.4 NNE 11 19 6 10 1008.7 1008.6 0.0
02/09:30am 30.0 32.7 22.9 65 4.9 NNE 13 19 7 10 1008.5 1008.4 0.0
02/09:00am 29.7 33.4 23.9 71 4.0 NNE 11 17 6 9 1008.3 1008.2 0.0
02/08:30am 28.2 31.5 23.8 77 3.0 NNE 13 22 7 12 1008.2 1008.1 0.0
02/08:00am 27.1 31.4 24.2 84 2.0 NE 9 15 5 8 1007.9 1007.8 0.0
02/07:30am 25.9 30.2 24.3 91 1.1 NNE 9 11 5 6 1007.4 1007.3 0.0
02/07:00am 25.4 30.2 24.4 94 0.7 NE 7 9 4 5 1007.4 1007.3 0.0
02/06:30am 25.3 30.1 24.4 95 0.6 E 7 9 4 5 1007.3 1007.2 0.0
02/06:00am 25.6 30.7 24.7 95 0.6 NE 6 9 3 5 1007.0 1006.9 0.0
02/05:30am 25.9 31.2 25.0 95 0.6 ENE 6 9 3 5 1006.8 1006.7 0.0
02/05:00am 26.1 31.7 25.4 96 0.5 NE 6 9 3 5 1006.2 1006.1 0.0
02/04:30am 26.3 32.5 26.3 100 0.0 ENE 6 9 3 5 1006.0 1005.9 0.0
02/04:00am 26.3 32.5 26.3 100 0.0 ENE 6 7 3 4 1006.2 1006.1 0.0
02/03:30am 26.3 32.5 26.3 100 0.0 NE 6 9 3 5 1006.4 1006.3 0.0
02/03:00am 26.3 32.6 26.0 98 0.2 WNW 4 7 2 4 1006.6 1006.5 0.0
02/02:30am 26.5 33.5 25.8 96 0.5 CALM 0 0 0 0 1006.8 1006.7 0.0
02/02:00am 26.5 32.5 26.0 97 0.4 ENE 6 7 3 4 1007.0 1006.9 0.0
02/01:30am 26.7 33.6 25.7 94 0.7 CALM 0 0 0 0 1007.3 1007.2 0.0
02/01:00am 26.6 32.2 25.4 93 0.8 NNW 6 7 3 4 1007.6 1007.5 0.0
02/12:30am 26.9 33.5 25.3 91 1.1 CALM 0 0 0 0 1007.7 1007.6 0.0
02/12:00am 26.8 32.1 25.2 91 1.1 NNE 7 9 4 5 1007.8 1007.7 0.0
 
Date/Time
EST
Temp
°C
App
Temp
°C
Dew
Point
Rel
Hum
%
Delta-T
°C
Wind Press
QNH
hPa
Press
MSL
hPa
Rain
since 9 am
mm
Dir
 
Spd
km/h
Gust
km/h
Spd
kts
Gust
kts
01/11:30pm 27.0 32.3 25.2 90 1.3 NNE 7 11 4 6 1007.9 1007.8 0.0
01/11:00pm 27.1 32.4 24.9 88 1.5 NNW 6 9 3 5 1007.6 1007.5 0.0
01/10:30pm 27.5 33.9 24.9 86 1.8 CALM 0 6 0 3 1007.3 1007.2 0.0
01/10:00pm 28.0 33.6 24.8 83 2.2 WNW 4 7 2 4 1007.0 1006.9 0.0
01/09:30pm 28.2 33.4 24.8 82 2.4 WSW 6 7 3 4 1006.7 1006.6 0.0
01/09:00pm 28.4 33.6 24.8 81 2.5 SSW 6 7 3 4 1006.3 1006.2 0.0
01/08:30pm 28.5 33.6 24.7 80 2.7 WSW 6 9 3 5 1006.1 1006.0 0.0
01/08:00pm 28.8 33.7 24.6 78 2.9 WSW 7 11 4 6 1005.9 1005.8 0.0
01/07:30pm 29.2 33.6 24.5 76 3.3 W 9 11 5 6 1005.6 1005.5 0.0
01/07:00pm 29.9 34.3 24.5 73 3.8 WSW 9 13 5 7 1004.9 1004.8 0.0

Other Formats:

Comma delimited format used in spreadsheet applications
http://www.bom.gov.au/fwo/IDQ60801/IDQ60801.94268.axf

JavaScript Object Notation format (JSON) in row-major order
http://www.bom.gov.au/fwo/IDQ60801/IDQ60801.94268.json